Time;durP1;ratioP1;P1;durP2;ratioP2;P2;SDS_P1;SDS_P2;PMS_P1;PMS_P2;Temp;Humidity;BMP_temperature;BMP_pressure;BME280_temperature;BME280_humidity;BME280_pressure;Samples;Min_cycle;Max_cycle;Signal;HPM_P1;HPM_P2
2023/01/20 00:01:46;;;;;;;22.25;13.18;;;4.00;79.20;;;;;;5013434;28;20514;-46
2023/01/20 00:04:14;;;;;;;23.23;14.98;;;4.10;79.20;;;;;;5012150;28;20046;-46
2023/01/20 00:06:40;;;;;;;23.20;14.88;;;4.10;79.10;;;;;;5005793;28;20113;-46
2023/01/20 00:09:12;;;;;;;25.52;14.93;;;4.20;79.20;;;;;;5002622;28;20039;-48
2023/01/20 00:11:41;;;;;;;28.42;15.65;;;4.20;79.00;;;;;;5007466;28;20038;-45
2023/01/20 00:14:12;;;;;;;26.85;16.20;;;4.30;78.90;;;;;;5012043;28;20049;-47
2023/01/20 00:16:38;;;;;;;31.33;17.50;;;4.30;78.70;;;;;;5009795;28;20052;-45
2023/01/20 00:19:10;;;;;;;30.33;17.38;;;4.30;78.70;;;;;;4989328;28;20054;-45
2023/01/20 00:21:37;;;;;;;28.10;15.68;;;4.30;79.20;;;;;;5012998;28;20069;-44
2023/01/20 00:24:04;;;;;;;28.90;16.60;;;4.30;78.50;;;;;;5011644;28;20478;-46
2023/01/20 00:26:38;;;;;;;28.73;17.23;;;4.30;78.50;;;;;;5009458;28;20100;-46
2023/01/20 00:29:10;;;;;;;29.80;16.98;;;4.40;78.50;;;;;;5000649;28;20085;-46
2023/01/20 00:31:39;;;;;;;35.65;17.38;;;4.30;78.40;;;;;;5012581;28;20050;-47
2023/01/20 00:34:09;;;;;;;33.33;18.08;;;4.40;78.50;;;;;;5011821;28;20509;-45
2023/01/20 00:36:53;;;;;;;29.33;17.13;;;4.40;78.40;;;;;;4984853;28;20050;-47
2023/01/20 00:39:27;;;;;;;29.17;16.85;;;4.40;78.40;;;;;;5010566;28;20045;-44
2023/01/20 00:41:54;;;;;;;32.90;19.38;;;4.40;78.40;;;;;;5010802;28;20610;-46
2023/01/20 00:44:20;;;;;;;32.67;19.33;;;4.50;78.20;;;;;;4994124;28;20413;-45
2023/01/20 00:46:50;;;;;;;29.63;18.35;;;4.50;78.20;;;;;;5004412;28;20042;-47
2023/01/20 00:49:16;;;;;;;33.40;18.35;;;4.50;78.10;;;;;;5010865;28;20117;-46
2023/01/20 00:51:43;;;;;;;30.27;17.58;;;4.50;78.00;;;;;;5010965;28;20046;-45
2023/01/20 00:54:10;;;;;;;35.35;20.65;;;4.50;77.90;;;;;;5010114;28;20044;-46
2023/01/20 00:56:38;;;;;;;36.30;21.20;;;4.50;77.80;;;;;;4999975;28;20042;-49
2023/01/20 00:59:07;;;;;;;36.92;22.15;;;4.50;77.80;;;;;;5009729;28;20470;-47
2023/01/20 01:01:34;;;;;;;34.67;21.40;;;4.50;77.70;;;;;;5012043;28;20042;-48
2023/01/20 01:04:05;;;;;;;33.45;21.02;;;4.50;77.60;;;;;;4989879;28;20038;-43
2023/01/20 01:06:35;;;;;;;40.50;21.60;;;4.50;77.70;;;;;;5008659;28;20046;-47
2023/01/20 01:09:06;;;;;;;40.08;20.70;;;4.50;77.60;;;;;;5010702;28;20230;-45
2023/01/20 01:11:32;;;;;;;38.47;20.52;;;4.50;77.50;;;;;;5011678;28;20034;-47
2023/01/20 01:13:59;;;;;;;32.45;19.92;;;4.50;77.50;;;;;;5007328;28;20121;-47
2023/01/20 01:16:25;;;;;;;34.08;20.25;;;4.50;77.50;;;;;;5006218;28;20045;-50
2023/01/20 01:18:57;;;;;;;37.15;20.58;;;4.50;77.40;;;;;;5002899;28;20049;-49
2023/01/20 01:21:32;;;;;;;34.17;19.15;;;4.50;77.30;;;;;;5011016;28;20503;-46
2023/01/20 01:23:58;;;;;;;35.75;18.33;;;4.50;77.30;;;;;;5002744;28;20422;-46
2023/01/20 01:26:25;;;;;;;30.55;17.80;;;4.50;77.30;;;;;;4993973;28;20050;-45
2023/01/20 01:28:54;;;;;;;29.48;17.65;;;4.50;77.30;;;;;;5010567;28;20068;-49
2023/01/20 01:31:20;;;;;;;31.63;17.05;;;4.50;77.20;;;;;;5011413;28;20402;-48
2023/01/20 01:33:48;;;;;;;32.53;17.75;;;4.50;77.20;;;;;;5002174;28;20445;-48
2023/01/20 01:36:26;;;;;;;32.95;18.73;;;4.50;77.30;;;;;;5011066;28;20042;-47
2023/01/20 01:38:56;;;;;;;32.65;18.77;;;4.60;77.40;;;;;;5010614;28;20121;-47
2023/01/20 01:41:24;;;;;;;34.30;19.10;;;4.60;77.20;;;;;;5008154;28;21133;-50
2023/01/20 01:44:03;;;;;;;32.17;18.10;;;4.60;77.20;;;;;;5006277;28;20092;-45
2023/01/20 01:46:29;;;;;;;37.53;18.75;;;4.60;77.10;;;;;;5011354;28;20056;-46
2023/01/20 01:49:02;;;;;;;37.40;19.30;;;4.60;77.10;;;;;;5010972;28;20062;-49
2023/01/20 01:51:44;;;;;;;34.60;18.88;;;4.60;77.10;;;;;;5004945;28;20125;-48
2023/01/20 01:54:18;;;;;;;39.03;19.60;;;4.60;77.10;;;;;;5010095;28;20056;-48
2023/01/20 01:56:47;;;;;;;32.92;17.90;;;4.60;77.10;;;;;;5011099;28;20042;-49
2023/01/20 01:59:19;;;;;;;31.20;18.23;;;4.60;77.20;;;;;;4997737;28;20046;-48
2023/01/20 02:01:51;;;;;;;34.03;19.50;;;4.60;77.30;;;;;;5001847;28;20034;-49
2023/01/20 02:04:27;;;;;;;35.67;18.42;;;4.60;77.20;;;;;;5010151;28;20125;-45
2023/01/20 02:07:14;;;;;;;33.75;18.60;;;4.70;77.10;;;;;;5007747;28;20195;-49
2023/01/20 02:09:45;;;;;;;36.28;19.50;;;4.70;76.80;;;;;;5003471;28;20125;-47
2023/01/20 02:12:19;;;;;;;35.03;19.38;;;4.70;76.60;;;;;;5008085;28;20041;-46
2023/01/20 02:14:56;;;;;;;38.80;19.25;;;4.70;76.40;;;;;;5009363;28;20556;-46
2023/01/20 02:17:52;;;;;;;35.83;19.60;;;4.60;76.40;;;;;;4991580;28;20054;-44
2023/01/20 02:20:48;;;;;;;33.50;18.55;;;4.70;76.60;;;;;;4998384;28;20472;-47
2023/01/20 02:23:33;;;;;;;;;;;4.60;76.70;;;;;;5007855;28;20050;-44
2023/01/20 02:26:14;;;;;;;29.73;15.68;;;4.60;76.80;;;;;;5010484;28;19928;-45
2023/01/20 02:29:11;;;;;;;31.63;17.38;;;4.60;76.60;;;;;;4993831;28;20113;-46
2023/01/20 02:32:08;;;;;;;36.80;18.85;;;4.60;76.60;;;;;;5009683;28;20046;-46
2023/01/20 02:35:05;;;;;;;33.63;18.10;;;4.60;76.70;;;;;;5002033;28;20044;-49
2023/01/20 02:37:43;;;;;;;36.67;18.83;;;4.50;76.90;;;;;;5007432;28;20499;-45
2023/01/20 02:40:20;;;;;;;36.60;18.83;;;4.60;77.00;;;;;;5002993;28;20042;-47
2023/01/20 02:42:58;;;;;;;33.83;18.70;;;4.50;77.10;;;;;;5009592;28;20071;-46
2023/01/20 02:45:52;;;;;;;32.28;18.30;;;4.60;77.20;;;;;;5007447;28;20104;-47
2023/01/20 02:48:29;;;;;;;32.85;17.23;;;4.60;77.20;;;;;;4999781;28;20096;-47
2023/01/20 02:51:16;;;;;;;35.53;18.00;;;4.50;77.10;;;;;;5010729;28;20044;-46
2023/01/20 02:53:51;;;;;;;36.83;19.30;;;4.60;77.20;;;;;;4991650;28;20050;-45
2023/01/20 02:56:25;;;;;;;34.40;19.80;;;4.60;77.20;;;;;;4998801;28;20514;-46
2023/01/20 02:59:06;;;;;;;35.03;18.77;;;4.60;77.20;;;;;;5005064;28;20050;-48
2023/01/20 03:01:48;;;;;;;34.63;18.17;;;4.60;77.20;;;;;;5002227;28;20457;-47
2023/01/20 03:04:20;;;;;;;36.78;19.98;;;4.60;77.10;;;;;;5009105;28;20096;-46
2023/01/20 03:06:56;;;;;;;36.47;19.83;;;4.60;77.10;;;;;;4997601;28;20042;-46
2023/01/20 03:09:37;;;;;;;32.40;18.95;;;4.60;77.10;;;;;;5008240;28;20042;-46
2023/01/20 03:12:22;;;;;;;32.50;18.83;;;4.60;77.10;;;;;;5005861;28;20045;-47
2023/01/20 03:14:52;;;;;;;32.97;18.02;;;4.60;77.10;;;;;;5006702;28;20069;-47
2023/01/20 03:17:23;;;;;;;33.40;19.33;;;4.60;77.10;;;;;;5001564;28;20045;-44
2023/01/20 03:19:50;;;;;;;35.25;19.13;;;4.60;77.00;;;;;;5009774;28;20582;-46
2023/01/20 03:22:17;;;;;;;32.58;18.50;;;4.60;76.90;;;;;;5009779;28;20536;-44
2023/01/20 03:24:46;;;;;;;36.30;19.50;;;4.60;76.80;;;;;;5004256;28;20103;-47
2023/01/20 03:27:15;;;;;;;32.40;18.58;;;4.60;76.80;;;;;;5011872;28;20042;-47
2023/01/20 03:29:42;;;;;;;30.33;18.25;;;4.60;76.80;;;;;;5013191;28;20124;-46
2023/01/20 03:32:10;;;;;;;37.65;19.98;;;4.60;76.70;;;;;;5013827;28;20124;-49
2023/01/20 03:34:42;;;;;;;36.20;19.13;;;4.60;76.70;;;;;;4999937;28;20557;-44
2023/01/20 03:37:18;;;;;;;32.38;17.80;;;4.60;76.60;;;;;;5010219;28;20308;-50
2023/01/20 03:39:48;;;;;;;30.58;18.42;;;4.60;76.70;;;;;;5012781;28;20050;-50
2023/01/20 03:42:44;;;;;;;34.50;17.67;;;4.60;76.70;;;;;;5013439;28;20076;-45
2023/01/20 03:45:16;;;;;;;28.17;16.75;;;4.60;76.80;;;;;;5004035;28;20125;-46
2023/01/20 03:47:49;;;;;;;29.92;17.38;;;4.60;76.90;;;;;;5012818;28;20049;-45
2023/01/20 03:50:38;;;;;;;33.22;17.52;;;4.60;76.90;;;;;;5012884;28;20045;-46
2023/01/20 03:53:25;;;;;;;29.60;16.95;;;4.60;77.10;;;;;;5005029;28;20044;-44
2023/01/20 03:56:08;;;;;;;26.17;16.02;;;4.60;77.10;;;;;;5008145;28;20115;-49
2023/01/20 03:58:38;;;;;;;24.83;15.13;;;4.70;77.10;;;;;;5012849;28;20048;-45
2023/01/20 04:01:13;;;;;;;27.80;14.38;;;4.70;77.10;;;;;;5005075;28;20104;-48
2023/01/20 04:03:47;;;;;;;27.73;15.73;;;4.70;76.90;;;;;;5005400;28;20060;-48
2023/01/20 04:06:16;;;;;;;22.23;14.30;;;4.70;76.80;;;;;;5013470;28;20038;-50
2023/01/20 04:08:52;;;;;;;26.23;14.35;;;4.70;76.80;;;;;;5011455;28;20042;-46
2023/01/20 04:11:22;;;;;;;27.05;15.60;;;4.70;76.70;;;;;;5002313;28;20129;-47
2023/01/20 04:13:55;;;;;;;24.40;14.80;;;4.70;76.60;;;;;;5011016;28;20469;-45
2023/01/20 04:16:23;;;;;;;24.10;14.93;;;4.70;76.50;;;;;;5013296;28;20061;-48
2023/01/20 04:18:52;;;;;;;23.35;14.20;;;4.70;76.60;;;;;;5012437;28;20054;-48
2023/01/20 04:21:38;;;;;;;23.75;14.88;;;4.70;76.60;;;;;;5008229;28;20046;-46
2023/01/20 04:24:29;;;;;;;25.75;14.45;;;4.70;76.60;;;;;;5007434;28;20052;-46
2023/01/20 04:27:01;;;;;;;23.58;13.60;;;4.70;76.60;;;;;;5008056;28;20049;-46
2023/01/20 04:29:27;;;;;;;25.63;14.82;;;4.70;76.50;;;;;;5012353;28;20117;-45
2023/01/20 04:31:59;;;;;;;22.88;14.40;;;4.70;76.50;;;;;;5002827;28;20038;-46
2023/01/20 04:34:25;;;;;;;22.48;14.45;;;4.70;76.60;;;;;;5012112;28;20077;-44
2023/01/20 04:36:52;;;;;;;27.60;16.00;;;4.70;76.50;;;;;;5012685;28;20081;-46
2023/01/20 04:39:19;;;;;;;26.88;14.60;;;4.70;76.60;;;;;;5008598;28;20060;-48
2023/01/20 04:41:53;;;;;;;27.25;15.43;;;4.70;76.60;;;;;;5006027;28;20574;-48
2023/01/20 04:44:22;;;;;;;24.38;15.02;;;4.70;76.60;;;;;;5011426;28;20034;-45
2023/01/20 04:46:57;;;;;;;23.58;14.43;;;4.70;76.60;;;;;;5012737;28;20341;-46
2023/01/20 04:49:23;;;;;;;25.83;15.48;;;4.70;76.60;;;;;;5008420;28;20061;-47
2023/01/20 04:51:50;;;;;;;24.50;15.43;;;4.70;76.50;;;;;;5007654;28;20057;-45
2023/01/20 04:54:20;;;;;;;30.73;16.52;;;4.70;76.40;;;;;;5011319;28;20056;-47
2023/01/20 04:56:52;;;;;;;24.95;14.98;;;4.70;76.40;;;;;;5012262;28;20517;-47
2023/01/20 04:59:19;;;;;;;23.77;14.95;;;4.70;76.50;;;;;;5005673;28;20553;-49
2023/01/20 05:01:48;;;;;;;27.42;15.57;;;4.70;76.40;;;;;;5012277;28;20465;-46
2023/01/20 05:04:18;;;;;;;;;;;4.70;76.30;;;;;;4995062;28;20104;-49
2023/01/20 05:06:44;;;;;;;25.50;13.35;;;4.80;76.30;;;;;;5009248;28;19922;-46
2023/01/20 05:09:15;;;;;;;26.98;15.43;;;4.70;76.10;;;;;;5005178;28;20122;-47
2023/01/20 05:11:43;;;;;;;24.35;14.05;;;4.70;76.10;;;;;;5009582;28;20517;-46
2023/01/20 05:14:10;;;;;;;28.95;16.02;;;4.70;76.10;;;;;;4991855;28;20132;-48
2023/01/20 05:16:37;;;;;;;28.35;16.73;;;4.70;76.30;;;;;;5009002;28;20145;-44
2023/01/20 05:19:04;;;;;;;26.67;15.48;;;4.70;76.40;;;;;;5009951;28;20053;-46
2023/01/20 05:21:30;;;;;;;25.05;15.27;;;4.70;76.50;;;;;;5010142;28;20525;-46
2023/01/20 05:23:57;;;;;;;27.40;16.15;;;4.70;76.60;;;;;;5007865;28;20038;-45
2023/01/20 05:26:24;;;;;;;28.48;17.00;;;4.70;76.60;;;;;;5004068;28;20392;-46
2023/01/20 05:28:51;;;;;;;26.48;15.63;;;4.70;76.50;;;;;;5005662;28;20042;-47
2023/01/20 05:31:18;;;;;;;26.95;14.98;;;4.70;76.40;;;;;;5010058;28;20441;-47
2023/01/20 05:33:45;;;;;;;26.98;14.93;;;4.70;76.40;;;;;;5008540;28;20502;-45
2023/01/20 05:36:12;;;;;;;30.90;17.65;;;4.70;76.40;;;;;;5004219;28;20095;-44
2023/01/20 05:38:38;;;;;;;28.23;16.10;;;4.70;76.40;;;;;;5010037;28;20073;-45
2023/01/20 05:41:07;;;;;;;27.58;15.65;;;4.70;76.40;;;;;;5010879;28;20042;-47
2023/01/20 05:43:34;;;;;;;27.85;16.42;;;4.70;76.40;;;;;;5009119;28;20069;-45
2023/01/20 05:46:01;;;;;;;28.88;16.67;;;4.70;76.40;;;;;;5006804;28;20072;-48
2023/01/20 05:48:28;;;;;;;29.48;17.48;;;4.70;76.40;;;;;;5009812;28;20595;-45
2023/01/20 05:50:55;;;;;;;31.60;16.92;;;4.70;76.40;;;;;;5001893;28;20654;-45
2023/01/20 05:53:22;;;;;;;31.08;17.88;;;4.70;76.40;;;;;;5008399;28;20068;-48
2023/01/20 05:55:48;;;;;;;28.08;16.80;;;4.70;76.50;;;;;;5003748;28;20038;-48
2023/01/20 05:58:15;;;;;;;25.77;16.05;;;4.70;76.40;;;;;;5010406;28;20088;-45
2023/01/20 06:00:42;;;;;;;29.90;17.67;;;4.70;76.40;;;;;;5010944;28;20117;-46
2023/01/20 06:03:09;;;;;;;32.78;18.02;;;4.70;76.40;;;;;;5007298;28;20576;-45
2023/01/20 06:05:35;;;;;;;31.23;16.60;;;4.70;76.40;;;;;;4988136;28;20038;-46
2023/01/20 06:08:02;;;;;;;29.60;17.75;;;4.70;76.30;;;;;;5005732;28;20042;-45
2023/01/20 06:10:31;;;;;;;28.30;16.63;;;4.80;76.40;;;;;;4999711;28;20038;-47
2023/01/20 06:12:58;;;;;;;32.08;16.75;;;4.80;76.30;;;;;;5008818;28;20112;-46
2023/01/20 06:15:24;;;;;;;27.90;16.73;;;4.70;76.20;;;;;;5008130;28;20069;-49
2023/01/20 06:17:54;;;;;;;31.88;17.77;;;4.80;76.20;;;;;;5001231;28;20046;-50
2023/01/20 06:20:23;;;;;;;27.83;16.58;;;4.80;76.90;;;;;;5004663;28;20133;-47
2023/01/20 06:22:54;;;;;;;28.10;15.75;;;4.80;76.30;;;;;;5009074;28;20052;-50
2023/01/20 06:25:21;;;;;;;29.42;16.85;;;4.80;76.20;;;;;;5005077;28;20548;-44
2023/01/20 06:27:48;;;;;;;31.02;17.00;;;4.80;76.30;;;;;;5008810;28;20115;-49
2023/01/20 06:30:17;;;;;;;33.10;17.48;;;4.80;76.30;;;;;;5007865;28;20038;-44
2023/01/20 06:32:46;;;;;;;31.60;17.80;;;4.80;76.10;;;;;;5001920;28;20113;-47
2023/01/20 06:35:14;;;;;;;27.20;16.30;;;4.80;76.10;;;;;;5008369;28;20050;-45
2023/01/20 06:37:41;;;;;;;29.15;18.10;;;4.80;76.00;;;;;;5006231;28;20045;-46
2023/01/20 06:40:08;;;;;;;34.50;18.85;;;4.80;76.00;;;;;;5001554;28;20152;-46
2023/01/20 06:42:35;;;;;;;32.03;17.27;;;4.80;76.10;;;;;;5004629;28;20414;-46
2023/01/20 06:45:01;;;;;;;31.00;17.63;;;4.80;76.10;;;;;;5007726;28;20108;-45
2023/01/20 06:47:28;;;;;;;26.15;16.27;;;4.80;76.10;;;;;;5007833;28;20147;-49
2023/01/20 06:49:55;;;;;;;31.80;16.98;;;4.80;76.20;;;;;;5007814;28;20046;-49
2023/01/20 06:52:21;;;;;;;27.83;16.60;;;4.80;76.30;;;;;;4997319;28;20042;-46
2023/01/20 06:54:48;;;;;;;26.95;17.45;;;4.80;76.30;;;;;;5002386;28;20049;-45
2023/01/20 06:57:15;;;;;;;31.23;17.17;;;4.80;76.30;;;;;;5008217;28;20046;-50
2023/01/20 06:59:46;;;;;;;29.23;16.58;;;4.90;76.20;;;;;;5003403;28;20060;-49
2023/01/20 07:02:13;;;;;;;29.15;16.05;;;4.90;76.20;;;;;;5005688;28;20052;-47
2023/01/20 07:04:41;;;;;;;31.92;16.55;;;4.90;76.10;;;;;;5007413;28;20391;-46
2023/01/20 07:07:11;;;;;;;31.63;19.00;;;4.90;76.00;;;;;;5005024;28;20128;-45
2023/01/20 07:09:38;;;;;;;27.23;16.15;;;4.90;76.00;;;;;;5005606;28;20042;-46
2023/01/20 07:12:05;;;;;;;27.55;16.05;;;4.90;76.10;;;;;;5008381;28;20038;-47
2023/01/20 07:14:31;;;;;;;27.92;15.40;;;4.90;76.10;;;;;;5008621;28;20034;-47
2023/01/20 07:16:58;;;;;;;31.80;16.70;;;4.90;76.00;;;;;;5006951;28;20030;-49
2023/01/20 07:19:25;;;;;;;27.17;16.10;;;4.90;76.00;;;;;;5003488;28;20085;-43
2023/01/20 07:21:51;;;;;;;30.95;16.30;;;4.90;75.80;;;;;;5004335;28;20037;-47
2023/01/20 07:24:18;;;;;;;25.23;15.27;;;4.90;75.80;;;;;;5008624;28;20435;-46
2023/01/20 07:26:45;;;;;;;28.95;16.70;;;4.90;75.80;;;;;;5006731;28;20046;-46
2023/01/20 07:29:11;;;;;;;30.45;16.25;;;4.90;75.80;;;;;;4985432;28;20065;-48
2023/01/20 07:31:39;;;;;;;26.77;16.42;;;4.80;75.70;;;;;;5007666;28;20056;-46
2023/01/20 07:34:05;;;;;;;32.85;17.67;;;4.90;75.60;;;;;;5009160;28;20433;-50
2023/01/20 07:36:32;;;;;;;27.33;17.00;;;4.90;75.60;;;;;;5006588;28;20565;-46
2023/01/20 07:38:59;;;;;;;28.88;15.13;;;4.90;75.50;;;;;;4997793;28;20048;-46
2023/01/20 07:41:25;;;;;;;30.52;16.75;;;4.80;75.50;;;;;;5010168;28;20453;-47
2023/01/20 07:43:52;;;;;;;28.38;15.63;;;4.80;75.50;;;;;;5008470;28;20506;-46
2023/01/20 07:46:20;;;;;;;27.23;15.50;;;4.80;75.60;;;;;;5010151;28;20045;-46
2023/01/20 07:48:47;;;;;;;25.70;15.40;;;4.80;75.70;;;;;;5006364;28;20125;-47
2023/01/20 07:51:15;;;;;;;30.35;17.80;;;4.80;76.40;;;;;;5009774;28;20410;-45
2023/01/20 07:53:46;;;;;;;27.90;16.20;;;4.80;75.80;;;;;;5008373;28;20050;-44
2023/01/20 07:56:19;;;;;;;20.23;11.38;;;4.80;75.80;;;;;;5005362;28;20104;-45
2023/01/20 07:58:49;;;;;;;29.38;15.88;;;4.90;75.80;;;;;;4997423;28;20056;-49
2023/01/20 08:01:17;;;;;;;28.65;16.38;;;4.90;75.50;;;;;;5009125;28;20069;-45
2023/01/20 08:03:45;;;;;;;24.33;14.50;;;4.90;75.40;;;;;;5000749;28;20083;-46
2023/01/20 08:06:14;;;;;;;30.42;16.30;;;4.90;75.40;;;;;;5009260;28;20490;-46
2023/01/20 08:08:41;;;;;;;25.15;15.68;;;4.90;75.50;;;;;;4999741;28;20042;-48
2023/01/20 08:11:09;;;;;;;29.88;15.82;;;4.90;75.40;;;;;;5002722;28;20064;-46
2023/01/20 08:13:36;;;;;;;24.60;16.00;;;4.90;75.50;;;;;;5001160;28;20038;-48
2023/01/20 08:16:05;;;;;;;27.83;15.88;;;4.90;75.40;;;;;;5005264;28;20049;-49
2023/01/20 08:18:34;;;;;;;27.08;15.75;;;4.90;75.40;;;;;;5005123;28;20073;-49
2023/01/20 08:21:06;;;;;;;29.33;15.88;;;4.90;75.60;;;;;;5012940;28;20048;-46
2023/01/20 08:23:34;;;;;;;26.27;15.50;;;4.90;75.40;;;;;;4995086;28;20681;-47
2023/01/20 08:26:04;;;;;;;26.95;15.90;;;4.90;75.40;;;;;;5010325;28;20538;-48
2023/01/20 08:28:32;;;;;;;29.60;16.38;;;4.90;75.40;;;;;;5002974;28;20048;-51
2023/01/20 08:31:22;;;;;;;22.98;14.73;;;4.90;75.30;;;;;;5012419;28;20092;-48
2023/01/20 08:33:54;;;;;;;24.38;14.63;;;5.00;75.30;;;;;;5008801;28;20069;-46
2023/01/20 08:36:26;;;;;;;27.10;15.40;;;5.00;75.50;;;;;;5004190;28;20501;-47
2023/01/20 08:38:55;;;;;;;23.10;15.82;;;5.10;75.80;;;;;;5011747;28;20050;-50
2023/01/20 08:41:27;;;;;;;27.30;16.48;;;5.10;75.80;;;;;;5012229;28;20116;-50
2023/01/20 08:43:54;;;;;;;27.52;18.45;;;5.10;75.70;;;;;;5005619;28;20069;-46
2023/01/20 08:46:21;;;;;;;27.08;16.27;;;5.20;75.70;;;;;;5012975;28;20500;-48
2023/01/20 08:48:50;;;;;;;24.45;15.55;;;5.20;75.70;;;;;;5012588;28;20465;-44
2023/01/20 08:51:20;;;;;;;26.63;15.77;;;5.20;75.60;;;;;;5005471;28;20417;-46
2023/01/20 08:53:48;;;;;;;27.30;16.55;;;5.30;75.50;;;;;;5003309;28;20487;-47
2023/01/20 08:56:16;;;;;;;23.75;16.13;;;5.30;75.50;;;;;;5009385;28;20092;-45
2023/01/20 08:58:43;;;;;;;26.75;16.48;;;5.30;75.40;;;;;;5011420;28;20053;-49
2023/01/20 09:01:14;;;;;;;27.33;16.77;;;5.30;75.30;;;;;;5012817;28;20042;-47
2023/01/20 09:03:41;;;;;;;28.38;16.27;;;5.40;75.20;;;;;;5003324;28;20051;-46
2023/01/20 09:06:26;;;;;;;23.92;15.10;;;5.40;75.30;;;;;;5012020;28;20049;-45
2023/01/20 09:08:53;;;;;;;23.60;15.40;;;5.40;75.40;;;;;;5010310;28;20038;-46
2023/01/20 09:11:23;;;;;;;25.08;14.65;;;5.40;75.40;;;;;;5010167;28;20517;-46
2023/01/20 09:13:50;;;;;;;23.65;14.90;;;5.50;75.40;;;;;;5004823;28;20574;-46
2023/01/20 09:16:19;;;;;;;23.35;15.73;;;5.50;75.20;;;;;;5012143;28;20546;-48
2023/01/20 09:18:46;;;;;;;22.73;14.60;;;5.50;75.00;;;;;;5010458;28;20050;-46
2023/01/20 09:21:13;;;;;;;24.23;14.10;;;5.50;75.00;;;;;;5007184;28;20528;-46
2023/01/20 09:23:41;;;;;;;21.52;14.43;;;5.50;75.20;;;;;;5005878;28;20077;-47
2023/01/20 09:26:08;;;;;;;26.50;15.30;;;5.50;75.20;;;;;;5012038;28;20096;-44
2023/01/20 09:28:35;;;;;;;22.60;14.75;;;5.50;75.20;;;;;;5002600;28;20525;-46
2023/01/20 09:31:05;;;;;;;23.35;13.40;;;5.50;75.10;;;;;;5003347;28;20045;-46
2023/01/20 09:33:35;;;;;;;24.23;15.05;;;5.50;75.10;;;;;;5007684;28;20109;-47
2023/01/20 09:36:03;;;;;;;19.55;13.20;;;5.50;75.10;;;;;;5011880;28;20100;-46
2023/01/20 09:44:30;;;;;;;18.50;12.48;;;5.50;74.90;;;;;;5009278;28;20431;-46
2023/01/20 09:47:29;;;;;;;18.02;11.57;;;5.50;74.80;;;;;;5007595;28;20048;-47
2023/01/20 09:53:37;;;;;;;24.45;14.23;;;5.50;74.70;;;;;;5004582;28;20573;-46
2023/01/20 09:56:17;;;;;;;18.50;12.73;;;5.50;74.70;;;;;;5005921;28;20516;-47
2023/01/20 09:58:56;;;;;;;20.65;13.45;;;5.50;74.80;;;;;;5006957;28;20053;-46
2023/01/20 10:01:44;;;;;;;19.23;12.52;;;5.50;74.90;;;;;;5005073;28;20121;-46
2023/01/20 10:04:43;;;;;;;18.00;12.68;;;5.50;75.00;;;;;;5009846;28;20048;-44
2023/01/20 10:07:18;;;;;;;17.65;11.95;;;5.50;74.90;;;;;;4996883;28;20521;-46
2023/01/20 10:10:12;;;;;;;20.33;12.05;;;5.50;75.00;;;;;;5002720;28;20148;-46
2023/01/20 10:12:46;;;;;;;19.88;12.68;;;5.50;75.10;;;;;;5011306;28;20049;-46
2023/01/20 10:15:19;;;;;;;18.45;12.43;;;5.50;75.20;;;;;;5010592;28;20038;-47
2023/01/20 10:18:12;;;;;;;19.02;12.35;;;5.50;75.20;;;;;;4995658;28;20050;-45
2023/01/20 10:20:45;;;;;;;16.60;12.18;;;5.60;75.10;;;;;;5008301;28;20045;-46
2023/01/20 10:23:15;;;;;;;19.05;12.38;;;5.50;75.20;;;;;;5009863;28;20544;-46
2023/01/20 10:26:15;;;;;;;21.50;11.80;;;5.60;75.30;;;;;;5007961;28;20050;-47
2023/01/20 10:28:58;;;;;;;18.58;12.00;;;5.50;75.40;;;;;;4988702;28;20057;-44
2023/01/20 10:31:27;;;;;;;19.10;12.35;;;5.60;75.60;;;;;;5010750;28;20141;-46
2023/01/20 10:34:06;;;;;;;18.10;11.23;;;5.60;75.60;;;;;;5009791;28;20065;-46
2023/01/20 10:36:37;;;;;;;18.05;12.00;;;5.60;75.30;;;;;;5006836;28;20084;-48
2023/01/20 10:39:15;;;;;;;17.70;11.18;;;5.70;75.30;;;;;;5004265;28;20065;-47
2023/01/20 10:41:46;;;;;;;15.77;11.20;;;5.70;75.40;;;;;;5010613;28;20048;-46
2023/01/20 10:44:14;;;;;;;18.25;10.25;;;5.70;75.40;;;;;;5009939;28;20473;-47
2023/01/20 10:47:06;;;;;;;16.95;10.52;;;5.70;75.20;;;;;;5000345;28;20483;-48
2023/01/20 10:50:03;;;;;;;13.73;9.05;;;5.70;74.80;;;;;;5006077;28;20043;-46
2023/01/20 10:52:54;;;;;;;15.48;9.82;;;5.70;74.70;;;;;;5006418;28;20153;-47
2023/01/20 10:55:28;;;;;;;16.63;10.30;;;5.70;74.60;;;;;;5002967;28;20038;-47
2023/01/20 10:58:03;;;;;;;12.45;8.52;;;5.70;74.60;;;;;;5009151;28;20052;-46
2023/01/20 11:00:31;;;;;;;11.55;8.45;;;5.70;74.60;;;;;;5008286;28;20038;-48
2023/01/20 11:02:59;;;;;;;12.73;8.43;;;5.70;74.70;;;;;;5003079;28;20037;-49
2023/01/20 11:05:29;;;;;;;13.68;9.45;;;5.60;74.80;;;;;;5004216;28;20061;-48
2023/01/20 11:07:58;;;;;;;12.70;8.80;;;5.60;74.90;;;;;;5007306;28;20045;-45
2023/01/20 11:10:27;;;;;;;13.32;8.77;;;5.60;74.70;;;;;;5001027;28;20393;-48
2023/01/20 11:12:56;;;;;;;11.35;8.07;;;5.60;74.70;;;;;;5009189;28;20522;-47
2023/01/20 11:15:26;;;;;;;10.75;7.70;;;5.60;74.70;;;;;;5004945;28;20048;-51
2023/01/20 11:18:13;;;;;;;11.38;8.13;;;5.50;74.70;;;;;;5003280;28;20120;-49
2023/01/20 11:20:52;;;;;;;12.32;8.05;;;5.60;74.90;;;;;;5004756;28;20050;-49
2023/01/20 11:23:31;;;;;;;10.80;7.60;;;5.60;75.20;;;;;;4997066;28;20070;-51
2023/01/20 11:26:01;;;;;;;11.30;7.75;;;5.60;75.30;;;;;;5005478;28;22122;-49
2023/01/20 11:28:51;;;;;;;10.60;7.18;;;5.60;75.30;;;;;;5008478;28;20045;-47
2023/01/20 11:31:19;;;;;;;10.18;7.32;;;5.60;75.30;;;;;;5010107;28;20065;-47
2023/01/20 11:34:33;;;;;;;10.90;7.93;;;5.60;75.10;;;;;;5008353;28;21379;-46
2023/01/20 11:37:03;;;;;;;9.18;6.93;;;5.50;74.90;;;;;;4999418;28;20453;-50
2023/01/20 11:39:43;;;;;;;10.18;7.28;;;5.60;75.10;;;;;;5007431;28;20046;-49
2023/01/20 11:42:19;;;;;;;10.77;7.80;;;5.60;74.90;;;;;;4997342;28;20069;-49
2023/01/20 11:44:56;;;;;;;9.70;6.90;;;5.60;75.00;;;;;;5007751;28;20057;-50
2023/01/20 11:47:33;;;;;;;10.27;6.95;;;5.60;75.20;;;;;;5009920;28;20120;-50
2023/01/20 11:50:21;;;;;;;9.50;7.20;;;5.60;75.20;;;;;;5002610;28;20120;-49
2023/01/20 11:52:48;;;;;;;9.57;6.88;;;5.60;74.90;;;;;;5011105;28;20488;-47
2023/01/20 11:55:26;;;;;;;11.63;7.28;;;5.70;75.10;;;;;;5007365;28;20096;-46
2023/01/20 11:57:55;;;;;;;8.77;6.47;;;5.70;75.00;;;;;;5004464;28;20046;-45
2023/01/20 12:00:38;;;;;;;8.35;7.20;;;5.70;75.00;;;;;;5003480;28;20075;-49
2023/01/20 12:03:04;;;;;;;10.95;6.85;;;5.70;74.90;;;;;;4992429;28;20076;-47
2023/01/20 12:05:49;;;;;;;8.15;5.97;;;5.70;74.90;;;;;;5007913;28;20048;-48
2023/01/20 12:08:25;;;;;;;6.97;5.40;;;5.70;74.80;;;;;;5004925;28;20046;-50
2023/01/20 12:10:57;;;;;;;6.57;5.10;;;5.70;74.90;;;;;;5010344;28;20046;-48
2023/01/20 12:16:29;;;;;;;6.95;4.38;;;5.80;75.20;;;;;;5009528;28;20052;-46
2023/01/20 12:19:00;;;;;;;6.10;4.60;;;5.80;75.20;;;;;;5010392;28;20055;-46
2023/01/20 12:21:36;;;;;;;6.00;4.88;;;5.80;75.10;;;;;;5008891;28;20046;-47
2023/01/20 12:24:19;;;;;;;6.97;4.80;;;5.80;75.20;;;;;;5009207;28;20822;-46
2023/01/20 12:26:47;;;;;;;6.93;4.78;;;5.80;75.20;;;;;;5010578;28;20129;-46
2023/01/20 12:29:43;;;;;;;9.07;5.18;;;5.90;75.40;;;;;;5012321;28;20486;-47
2023/01/20 12:32:10;;;;;;;5.80;4.78;;;6.00;75.30;;;;;;5011775;28;20113;-46
2023/01/20 12:34:37;;;;;;;5.32;4.45;;;6.00;75.20;;;;;;5009003;28;20750;-47
2023/01/20 12:37:15;;;;;;;5.40;4.25;;;6.00;75.20;;;;;;5004755;28;20125;-47
2023/01/20 12:40:10;;;;;;;6.13;4.97;;;6.10;75.00;;;;;;5006341;28;20072;-47
2023/01/20 12:42:48;;;;;;;5.20;4.57;;;6.10;74.90;;;;;;5011572;28;20049;-46
2023/01/20 12:45:37;;;;;;;5.18;4.03;;;6.20;75.00;;;;;;5003240;28;20041;-47
2023/01/20 12:48:41;;;;;;;4.95;3.83;;;6.20;74.60;;;;;;5003471;28;20497;-46
2023/01/20 12:51:29;;;;;;;3.78;3.30;;;6.30;74.40;;;;;;4993260;28;20092;-47
2023/01/20 12:53:56;;;;;;;4.35;3.42;;;6.30;74.10;;;;;;5011272;28;20082;-50
2023/01/20 12:56:54;;;;;;;4.15;3.40;;;6.30;74.30;;;;;;5004961;28;20041;-48
2023/01/20 12:59:39;;;;;;;4.70;3.40;;;6.30;74.10;;;;;;5004669;28;20051;-51
2023/01/20 13:02:25;;;;;;;4.18;3.30;;;6.30;74.10;;;;;;5003706;28;20125;-46
2023/01/20 13:05:19;;;;;;;4.38;3.67;;;6.30;74.10;;;;;;5008707;28;20042;-50
2023/01/20 13:08:01;;;;;;;3.10;2.80;;;6.30;74.20;;;;;;5005807;28;20044;-48
2023/01/20 13:10:58;;;;;;;4.10;3.70;;;6.30;74.30;;;;;;5011475;28;20041;-48
2023/01/20 13:13:28;;;;;;;4.35;3.47;;;6.30;74.20;;;;;;5006147;28;20088;-50
2023/01/20 13:16:20;;;;;;;3.88;3.47;;;6.30;74.30;;;;;;5002464;28;20050;-48
2023/01/20 13:19:05;;;;;;;3.55;3.13;;;6.30;74.10;;;;;;5009649;28;20041;-50
2023/01/20 13:21:33;;;;;;;3.78;3.47;;;6.30;74.30;;;;;;5010671;28;20052;-50
2023/01/20 13:24:01;;;;;;;3.60;3.28;;;6.30;74.20;;;;;;5007454;28;20765;-46